createdAt,value
2022-10-01T00:02:01.714Z,8.80
2022-10-01T00:04:30.566Z,8.80
2022-10-01T00:07:03.059Z,8.80
2022-10-01T00:09:31.521Z,8.80
2022-10-01T00:12:00.914Z,8.90
2022-10-01T00:14:29.524Z,8.90
2022-10-01T00:16:57.661Z,8.90
2022-10-01T00:19:27.057Z,8.90
2022-10-01T00:21:55.216Z,8.90
2022-10-01T00:24:23.212Z,8.90
2022-10-01T00:26:51.210Z,8.90
2022-10-01T00:29:19.328Z,8.90
2022-10-01T00:31:47.492Z,8.90
2022-10-01T00:34:16.040Z,8.90
2022-10-01T00:36:45.474Z,8.90
2022-10-01T00:39:14.198Z,8.90
2022-10-01T00:41:42.869Z,8.90
2022-10-01T00:44:33.314Z,8.90
2022-10-01T00:47:10.439Z,8.90
2022-10-01T00:49:40.950Z,9.00
2022-10-01T00:52:15.781Z,9.00
2022-10-01T00:54:47.832Z,9.00
2022-10-01T00:57:19.200Z,9.00
2022-10-01T00:59:47.823Z,9.00
2022-10-01T01:02:16.014Z,9.00
2022-10-01T01:04:44.872Z,9.00
2022-10-01T01:07:14.467Z,9.00
2022-10-01T01:09:46.323Z,9.10
2022-10-01T01:12:27.446Z,9.10
2022-10-01T01:15:07.525Z,9.10
2022-10-01T01:17:44.763Z,9.20
2022-10-01T01:20:28.981Z,9.20
2022-10-01T01:23:14.129Z,9.20
2022-10-01T01:25:48.538Z,9.10
2022-10-01T01:28:24.458Z,9.10
2022-10-01T01:30:56.849Z,9.10
2022-10-01T01:33:27.978Z,9.10
2022-10-01T01:36:00.295Z,9.10
2022-10-01T01:38:32.347Z,9.10
2022-10-01T01:41:03.131Z,9.10
2022-10-01T01:43:35.935Z,9.10
2022-10-01T01:46:07.114Z,9.10
2022-10-01T01:48:38.620Z,9.00
2022-10-01T01:51:12.677Z,9.00
2022-10-01T01:53:41.690Z,8.90
2022-10-01T01:56:09.775Z,8.90
2022-10-01T01:58:40.247Z,8.80
2022-10-01T02:01:10.216Z,8.70
2022-10-01T02:03:38.693Z,8.70
2022-10-01T02:06:18.323Z,8.70
2022-10-01T02:08:50.758Z,8.50
2022-10-01T02:11:29.544Z,8.40
2022-10-01T02:14:07.336Z,8.30
2022-10-01T02:16:48.116Z,8.20
2022-10-01T02:19:24.422Z,8.10
2022-10-01T02:21:59.851Z,8.00
2022-10-01T02:24:37.722Z,7.90
2022-10-01T02:27:12.187Z,7.60
2022-10-01T02:29:44.269Z,7.70
2022-10-01T02:32:14.364Z,7.50
2022-10-01T02:34:43.142Z,7.30
2022-10-01T02:37:12.579Z,7.40
2022-10-01T02:39:42.647Z,7.30
2022-10-01T02:42:14.598Z,7.30
2022-10-01T02:44:46.453Z,7.10
2022-10-01T02:47:20.651Z,7.00
2022-10-01T02:49:50.465Z,7.00
2022-10-01T02:52:28.495Z,7.10
2022-10-01T02:55:00.100Z,7.00
2022-10-01T02:57:27.823Z,7.00
2022-10-01T02:59:59.877Z,7.00
2022-10-01T03:02:28.966Z,7.00
2022-10-01T03:04:57.708Z,7.00
2022-10-01T03:07:26.299Z,7.00
2022-10-01T03:09:54.488Z,7.00
2022-10-01T03:12:23.258Z,6.90
2022-10-01T03:14:51.422Z,6.90
2022-10-01T03:17:21.447Z,6.80
2022-10-01T03:19:49.521Z,6.70
2022-10-01T03:22:22.577Z,6.60
2022-10-01T03:24:50.872Z,6.80
2022-10-01T03:27:19.229Z,6.80
2022-10-01T03:29:47.776Z,6.70
2022-10-01T03:32:16.625Z,6.80
2022-10-01T03:34:46.368Z,6.80
2022-10-01T03:37:14.468Z,6.80
2022-10-01T03:39:42.697Z,6.90
2022-10-01T03:42:10.817Z,7.10
2022-10-01T03:44:38.876Z,7.00
2022-10-01T03:47:06.825Z,7.00
2022-10-01T03:49:35.591Z,6.90
2022-10-01T03:52:06.480Z,6.80
2022-10-01T03:54:34.999Z,6.80
2022-10-01T03:57:03.103Z,6.70
2022-10-01T03:59:31.195Z,6.80
2022-10-01T04:01:59.410Z,6.90
2022-10-01T04:04:28.968Z,6.80
2022-10-01T04:06:57.070Z,6.90
2022-10-01T04:09:26.421Z,6.80
2022-10-01T04:11:54.788Z,7.00
2022-10-01T04:14:22.749Z,6.80
2022-10-01T04:16:52.268Z,6.80
2022-10-01T04:19:20.717Z,6.80
2022-10-01T04:21:48.850Z,6.70
2022-10-01T04:24:16.877Z,6.60
2022-10-01T04:26:46.493Z,6.50
2022-10-01T04:29:14.810Z,6.50
2022-10-01T04:31:43.050Z,6.50
2022-10-01T04:34:11.101Z,6.50
2022-10-01T04:36:39.298Z,6.60
2022-10-01T04:39:07.280Z,6.60
2022-10-01T04:41:35.763Z,6.50
2022-10-01T04:44:05.922Z,6.50
2022-10-01T04:46:33.983Z,6.50
2022-10-01T04:49:02.224Z,6.40
2022-10-01T04:51:30.206Z,6.40
2022-10-01T04:53:58.248Z,6.40
2022-10-01T04:56:26.278Z,6.40
2022-10-01T04:58:54.290Z,6.40
2022-10-01T05:01:23.702Z,6.50
2022-10-01T05:03:51.917Z,6.40
2022-10-01T05:06:20.009Z,6.40
2022-10-01T05:08:49.567Z,6.40
2022-10-01T05:11:17.701Z,6.40
2022-10-01T05:13:46.065Z,6.40
2022-10-01T05:16:14.170Z,6.40
2022-10-01T05:18:43.748Z,6.50
2022-10-01T05:21:12.584Z,6.50
2022-10-01T05:23:40.631Z,6.50
2022-10-01T05:26:09.361Z,6.60
2022-10-01T05:28:38.489Z,6.60
2022-10-01T05:31:06.939Z,6.60
2022-10-01T05:33:35.186Z,6.70
2022-10-01T05:36:07.095Z,6.80
2022-10-01T05:38:37.215Z,6.80
2022-10-01T05:41:05.650Z,6.80
2022-10-01T05:43:33.808Z,6.80
2022-10-01T05:46:02.844Z,6.80
2022-10-01T05:48:34.203Z,6.90
2022-10-01T05:51:03.095Z,7.00
2022-10-01T05:53:32.437Z,7.00
2022-10-01T05:56:03.046Z,8.70
2022-10-01T05:58:31.175Z,8.80
2022-10-01T06:00:59.640Z,8.30
2022-10-01T06:03:29.681Z,7.40
2022-10-01T06:05:57.816Z,7.40
2022-10-01T06:08:28.700Z,7.40
2022-10-01T06:11:02.091Z,7.50
2022-10-01T06:13:30.873Z,7.40
2022-10-01T06:15:58.889Z,7.50
2022-10-01T06:18:27.383Z,7.60
2022-10-01T06:20:55.616Z,7.60
2022-10-01T06:23:23.651Z,7.70
2022-10-01T06:25:51.829Z,7.80
2022-10-01T06:28:21.953Z,7.90
2022-10-01T06:30:50.386Z,8.00
2022-10-01T06:33:19.381Z,8.10
2022-10-01T06:35:50.238Z,8.20
2022-10-01T06:38:20.886Z,8.30
2022-10-01T06:40:53.535Z,8.40
2022-10-01T06:43:23.482Z,8.50
2022-10-01T06:45:51.689Z,8.80
2022-10-01T06:48:20.667Z,8.80
2022-10-01T06:50:50.750Z,8.90
2022-10-01T06:53:19.605Z,8.90
2022-10-01T06:55:47.785Z,9.00
2022-10-01T06:58:17.845Z,9.10
2022-10-01T07:00:47.997Z,9.20
2022-10-01T07:03:18.379Z,9.20
2022-10-01T07:05:46.853Z,9.20
2022-10-01T07:08:15.223Z,9.20
2022-10-01T07:10:44.105Z,9.20
2022-10-01T07:13:14.434Z,9.30
2022-10-01T07:15:42.642Z,9.30
2022-10-01T07:18:13.330Z,9.40
2022-10-01T07:20:42.255Z,9.50
2022-10-01T07:23:13.705Z,9.60
2022-10-01T07:25:42.545Z,9.70
2022-10-01T07:28:16.442Z,9.80
2022-10-01T07:30:48.101Z,9.90
2022-10-01T07:33:19.344Z,9.90
2022-10-01T07:35:47.843Z,10.00
2022-10-01T07:38:16.668Z,10.20
2022-10-01T07:40:44.801Z,10.40
2022-10-01T07:43:14.613Z,10.50
2022-10-01T07:45:42.989Z,10.60
2022-10-01T07:48:11.119Z,10.60
2022-10-01T07:50:40.652Z,10.70
2022-10-01T07:53:08.789Z,10.70
2022-10-01T07:55:36.876Z,10.80
2022-10-01T07:58:05.503Z,10.80
2022-10-01T08:00:34.623Z,10.90
2022-10-01T08:03:02.893Z,11.00
2022-10-01T08:05:33.476Z,11.00
2022-10-01T08:08:05.076Z,11.10
2022-10-01T08:10:36.508Z,11.20
2022-10-01T08:13:14.162Z,11.20
2022-10-01T08:15:43.055Z,11.30
2022-10-01T08:18:11.390Z,11.40
2022-10-01T08:20:40.457Z,11.30
2022-10-01T08:23:11.792Z,11.40
2022-10-01T08:25:40.633Z,11.40
2022-10-01T08:28:09.526Z,11.50
2022-10-01T08:30:39.321Z,11.50
2022-10-01T08:33:08.186Z,11.60
2022-10-01T08:35:39.261Z,11.70
2022-10-01T08:38:09.760Z,11.70
2022-10-01T08:40:45.849Z,11.80
2022-10-01T08:43:32.730Z,11.80
2022-10-01T08:46:04.416Z,11.80
2022-10-01T08:48:48.072Z,11.90
2022-10-01T08:51:24.150Z,11.80
2022-10-01T08:53:58.278Z,12.00
2022-10-01T08:56:31.831Z,11.90
2022-10-01T08:59:01.439Z,11.90
2022-10-01T09:01:31.186Z,12.00
2022-10-01T09:04:00.418Z,12.00
2022-10-01T09:06:30.108Z,12.10
2022-10-01T09:09:23.763Z,12.10
2022-10-01T09:12:13.462Z,12.10
2022-10-01T09:15:05.616Z,12.10
2022-10-01T09:17:51.007Z,12.10
2022-10-01T09:20:26.529Z,12.10
2022-10-01T09:23:05.841Z,12.10
2022-10-01T09:25:38.423Z,12.10
2022-10-01T09:28:14.570Z,12.20
2022-10-01T09:30:46.583Z,12.20
2022-10-01T09:33:18.620Z,12.20
2022-10-01T09:35:51.646Z,12.30
2022-10-01T09:38:24.175Z,12.30
2022-10-01T09:40:55.865Z,12.50
2022-10-01T09:43:25.474Z,12.50
2022-10-01T09:45:54.083Z,12.50
2022-10-01T09:48:29.530Z,12.50
2022-10-01T09:51:02.891Z,12.50
2022-10-01T09:53:36.872Z,12.50
2022-10-01T09:56:14.295Z,12.40
2022-10-01T09:58:47.956Z,12.40
2022-10-01T10:01:26.244Z,12.40
2022-10-01T10:03:56.244Z,12.30
2022-10-01T10:06:28.240Z,12.10
2022-10-01T10:08:58.191Z,12.10
2022-10-01T10:11:31.165Z,12.10
2022-10-01T10:14:03.463Z,12.10
2022-10-01T10:16:35.400Z,12.10
2022-10-01T10:19:10.393Z,12.10
2022-10-01T10:21:38.957Z,12.00
2022-10-01T10:24:22.577Z,12.00
2022-10-01T10:26:56.693Z,12.00
2022-10-01T10:29:30.485Z,11.90
2022-10-01T10:31:59.887Z,11.80
2022-10-01T10:34:33.608Z,11.70
2022-10-01T10:37:06.852Z,11.60
2022-10-01T10:39:37.664Z,11.60
2022-10-01T10:42:08.559Z,11.50
2022-10-01T10:44:39.874Z,11.50
2022-10-01T10:47:11.022Z,11.30
2022-10-01T10:49:46.088Z,11.20
2022-10-01T10:52:23.609Z,11.20
2022-10-01T10:54:52.691Z,11.00
2022-10-01T10:57:27.783Z,11.10
2022-10-01T10:59:57.440Z,10.90
2022-10-01T11:02:27.002Z,10.90
2022-10-01T11:04:56.616Z,10.70
2022-10-01T11:07:27.111Z,10.70
2022-10-01T11:10:16.426Z,10.60
2022-10-01T11:13:00.764Z,10.50
2022-10-01T11:15:45.501Z,10.50
2022-10-01T11:18:34.376Z,10.50
2022-10-01T11:21:19.107Z,10.40
2022-10-01T11:24:24.757Z,10.30
2022-10-01T11:26:59.733Z,10.40
2022-10-01T11:29:39.438Z,10.30
2022-10-01T11:32:19.417Z,10.30
2022-10-01T11:35:07.994Z,10.20
2022-10-01T11:37:59.937Z,10.20
2022-10-01T11:40:34.036Z,10.10
2022-10-01T11:43:06.383Z,10.00
2022-10-01T11:45:41.463Z,10.00
2022-10-01T11:48:14.475Z,10.00
2022-10-01T11:50:47.826Z,10.00
2022-10-01T11:53:22.839Z,9.90
2022-10-01T11:56:14.889Z,9.90
2022-10-01T11:58:54.280Z,9.80
2022-10-01T12:01:33.148Z,9.80
2022-10-01T12:04:18.366Z,9.80
2022-10-01T12:06:55.933Z,9.80
2022-10-01T12:09:30.892Z,9.70
2022-10-01T12:12:02.669Z,9.70
2022-10-01T12:14:38.897Z,9.70
2022-10-01T12:17:17.144Z,9.70
2022-10-01T12:19:50.473Z,9.60
2022-10-01T12:22:24.784Z,9.70
2022-10-01T12:24:54.330Z,9.50
2022-10-01T12:27:47.998Z,9.50
2022-10-01T12:30:20.541Z,9.50
2022-10-01T12:33:02.611Z,9.40
2022-10-01T12:35:43.891Z,9.50
2022-10-01T12:38:27.491Z,9.50
2022-10-01T12:41:02.003Z,9.50
2022-10-01T12:44:05.946Z,9.50
2022-10-01T12:46:41.487Z,9.50
2022-10-01T12:49:22.554Z,9.40
2022-10-01T12:51:55.747Z,9.40
2022-10-01T12:54:43.620Z,9.40
2022-10-01T12:57:24.653Z,9.30
2022-10-01T13:00:08.080Z,9.40
2022-10-01T13:03:05.974Z,9.30
2022-10-01T13:05:44.668Z,9.40
2022-10-01T13:08:39.974Z,9.40
2022-10-01T13:11:21.487Z,9.40
2022-10-01T13:13:52.491Z,9.50
2022-10-01T13:16:27.999Z,9.50
2022-10-01T13:19:04.869Z,9.50
2022-10-01T13:21:52.728Z,9.50
2022-10-01T13:24:29.422Z,9.50
2022-10-01T13:27:04.343Z,9.50
2022-10-01T13:29:44.170Z,9.50
2022-10-01T13:32:34.632Z,9.50
2022-10-01T13:35:22.004Z,9.60
2022-10-01T13:37:51.501Z,9.70
2022-10-01T13:40:26.778Z,9.70
2022-10-01T13:42:57.974Z,9.70
2022-10-01T13:45:32.055Z,9.80
2022-10-01T13:48:08.947Z,9.90
2022-10-01T13:50:37.525Z,9.90
2022-10-01T13:53:09.420Z,10.00
2022-10-01T13:55:43.670Z,10.00
2022-10-01T13:58:25.091Z,10.10
2022-10-01T14:00:55.351Z,10.10
2022-10-01T14:03:37.973Z,10.10
2022-10-01T14:06:09.416Z,10.10
2022-10-01T14:08:45.866Z,10.10
2022-10-01T14:11:33.939Z,10.30
2022-10-01T14:14:27.929Z,10.30
2022-10-01T14:16:56.998Z,10.30
2022-10-01T14:19:27.206Z,10.40
2022-10-01T14:22:32.257Z,10.50
2022-10-01T14:25:20.906Z,10.60
2022-10-01T14:28:00.618Z,10.60
2022-10-01T14:30:38.280Z,10.60
2022-10-01T14:33:23.129Z,10.80
2022-10-01T14:36:01.318Z,10.80
2022-10-01T14:38:29.882Z,10.70
2022-10-01T14:40:59.490Z,10.80
2022-10-01T14:43:29.646Z,10.90
2022-10-01T14:45:59.520Z,10.80
2022-10-01T14:48:29.636Z,10.90
2022-10-01T14:50:59.818Z,10.90
2022-10-01T14:53:30.167Z,10.90
2022-10-01T14:56:02.791Z,10.90
2022-10-01T14:58:33.934Z,11.00
2022-10-01T15:01:02.665Z,11.00
2022-10-01T15:03:38.460Z,11.10
2022-10-01T15:06:14.206Z,11.10
2022-10-01T15:08:44.194Z,11.20
2022-10-01T15:11:18.410Z,11.20
2022-10-01T15:13:48.699Z,11.20
2022-10-01T15:16:19.185Z,11.30
2022-10-01T15:18:50.120Z,11.20
2022-10-01T15:21:24.004Z,11.20
2022-10-01T15:23:52.448Z,11.30
2022-10-01T15:26:25.297Z,11.30
2022-10-01T15:29:03.560Z,11.20
2022-10-01T15:31:32.980Z,11.30
2022-10-01T15:34:02.940Z,11.30
2022-10-01T15:36:31.684Z,11.40
2022-10-01T15:39:00.832Z,11.20
2022-10-01T15:41:33.125Z,11.30
2022-10-01T15:44:04.844Z,11.20
2022-10-01T15:46:35.414Z,11.10
2022-10-01T15:49:18.957Z,11.20
2022-10-01T15:52:15.044Z,11.10
2022-10-01T15:54:44.864Z,11.00
2022-10-01T15:57:20.235Z,11.10
2022-10-01T15:59:49.866Z,11.10
2022-10-01T16:02:21.829Z,11.00
2022-10-01T16:04:52.857Z,11.10
2022-10-01T16:07:23.321Z,11.10
2022-10-01T16:09:57.791Z,11.10
2022-10-01T16:12:28.635Z,11.00
2022-10-01T16:15:00.766Z,11.10
2022-10-01T16:17:31.840Z,11.00
2022-10-01T16:20:01.795Z,11.00
2022-10-01T16:22:32.866Z,11.10
2022-10-01T16:25:02.788Z,11.00
2022-10-01T16:27:44.209Z,11.00
2022-10-01T16:30:20.460Z,11.00
2022-10-01T16:32:49.138Z,11.00
2022-10-01T16:35:19.934Z,11.00
2022-10-01T16:37:50.076Z,11.10
2022-10-01T16:40:19.407Z,11.00
2022-10-01T16:42:50.571Z,11.00
2022-10-01T16:45:20.396Z,11.00
2022-10-01T16:47:48.490Z,11.00
2022-10-01T16:50:18.136Z,11.20
2022-10-01T16:52:46.853Z,11.10
2022-10-01T16:55:22.747Z,11.00
2022-10-01T16:57:53.719Z,11.20
2022-10-01T17:00:23.851Z,11.20
2022-10-01T17:02:52.029Z,11.20
2022-10-01T17:05:22.620Z,11.20
2022-10-01T17:07:51.096Z,11.20
2022-10-01T17:10:22.326Z,11.30
2022-10-01T17:12:52.208Z,11.20
2022-10-01T17:15:26.396Z,11.30
2022-10-01T17:17:55.206Z,11.30
2022-10-01T17:20:23.532Z,11.50
2022-10-01T17:22:51.852Z,11.50
2022-10-01T17:25:21.430Z,11.50
2022-10-01T17:27:50.174Z,11.50
2022-10-01T17:30:19.734Z,11.60
2022-10-01T17:32:48.008Z,11.50
2022-10-01T17:35:16.773Z,11.40
2022-10-01T17:37:44.938Z,11.50
2022-10-01T17:40:13.735Z,11.50
2022-10-01T17:42:41.883Z,11.60
2022-10-01T17:45:12.238Z,11.60
2022-10-01T17:47:45.858Z,11.60
2022-10-01T17:50:14.526Z,11.70
2022-10-01T17:52:43.270Z,11.70
2022-10-01T17:55:12.633Z,11.70
2022-10-01T17:57:40.781Z,11.80
2022-10-01T18:00:10.401Z,11.70
2022-10-01T18:02:42.904Z,11.80
2022-10-01T18:05:14.882Z,11.70
2022-10-01T18:07:43.774Z,11.70
2022-10-01T18:10:13.601Z,11.70
2022-10-01T18:12:41.958Z,11.70
2022-10-01T18:15:11.126Z,11.70
2022-10-01T18:17:43.467Z,11.80
2022-10-01T18:20:21.590Z,11.80
2022-10-01T18:22:50.305Z,11.80
2022-10-01T18:25:19.363Z,11.80
2022-10-01T18:27:50.160Z,11.80
2022-10-01T18:30:20.144Z,11.80
2022-10-01T18:32:56.853Z,11.90
2022-10-01T18:35:32.377Z,11.80
2022-10-01T18:38:06.836Z,11.80
2022-10-01T18:40:40.642Z,11.90
2022-10-01T18:43:13.981Z,11.80
2022-10-01T18:45:57.716Z,11.80
2022-10-01T18:48:50.143Z,11.80
2022-10-01T18:51:31.890Z,11.70
2022-10-01T18:54:15.650Z,11.80
2022-10-01T18:56:53.246Z,11.80
2022-10-01T18:59:42.596Z,11.70
2022-10-01T19:02:37.088Z,11.70
2022-10-01T19:05:51.646Z,11.80
2022-10-01T19:08:35.471Z,11.80
2022-10-01T19:11:17.631Z,11.80
2022-10-01T19:13:55.178Z,11.80
2022-10-01T19:16:37.275Z,11.80
2022-10-01T19:19:20.583Z,11.90
2022-10-01T19:21:58.376Z,11.80
2022-10-01T19:24:54.342Z,11.80
2022-10-01T19:27:38.441Z,11.80
2022-10-01T19:30:10.277Z,11.90
2022-10-01T19:32:45.053Z,11.90
2022-10-01T19:35:19.918Z,11.90
2022-10-01T19:37:52.883Z,11.80
2022-10-01T19:40:30.261Z,11.80
2022-10-01T19:43:12.291Z,11.80
2022-10-01T19:45:47.591Z,11.80
2022-10-01T19:48:20.974Z,11.90
2022-10-01T19:50:54.915Z,11.90
2022-10-01T19:53:27.881Z,12.00
2022-10-01T19:56:00.931Z,11.90
2022-10-01T19:58:30.641Z,11.80
2022-10-01T20:01:01.388Z,11.80
2022-10-01T20:03:38.934Z,11.80
2022-10-01T20:06:13.499Z,11.70
2022-10-01T20:08:47.079Z,11.80
2022-10-01T20:11:22.610Z,11.70
2022-10-01T20:14:36.804Z,11.70
2022-10-01T20:17:12.777Z,11.60
2022-10-01T20:19:47.086Z,11.70
2022-10-01T20:22:23.752Z,11.70
2022-10-01T20:24:59.280Z,11.70
2022-10-01T20:27:39.986Z,11.80
2022-10-01T20:30:11.467Z,11.80
2022-10-01T20:32:48.494Z,11.80
2022-10-01T20:35:27.968Z,11.80
2022-10-01T20:38:06.790Z,11.60
2022-10-01T20:40:41.096Z,11.70
2022-10-01T20:43:17.571Z,11.70
2022-10-01T20:45:48.419Z,11.70
2022-10-01T20:48:20.590Z,11.70
2022-10-01T20:50:52.015Z,11.70
2022-10-01T20:53:26.404Z,11.80
2022-10-01T20:56:01.483Z,11.70
2022-10-01T20:58:36.160Z,11.70
2022-10-01T21:01:10.469Z,11.70
2022-10-01T21:03:42.520Z,11.50
2022-10-01T21:06:14.731Z,11.50
2022-10-01T21:08:49.823Z,11.40
2022-10-01T21:11:26.640Z,11.50
2022-10-01T21:14:05.207Z,11.50
2022-10-01T21:16:56.284Z,11.50
2022-10-01T21:19:43.883Z,11.40
2022-10-01T21:22:24.394Z,11.50
2022-10-01T21:24:59.108Z,11.40
2022-10-01T21:27:59.569Z,11.40
2022-10-01T21:30:41.729Z,11.40
2022-10-01T21:33:19.331Z,11.40
2022-10-01T21:35:53.469Z,11.30
2022-10-01T21:38:32.206Z,11.40
2022-10-01T21:41:25.712Z,11.40
2022-10-01T21:44:11.241Z,11.40
2022-10-01T21:46:49.675Z,11.30
2022-10-01T21:49:26.431Z,11.50
2022-10-01T21:52:04.211Z,11.60
2022-10-01T21:55:04.593Z,11.40
2022-10-01T21:57:48.226Z,11.50
2022-10-01T22:00:23.439Z,11.60
2022-10-01T22:03:01.359Z,11.60
2022-10-01T22:05:37.862Z,11.70
2022-10-01T22:08:16.962Z,11.60
2022-10-01T22:10:48.190Z,11.50
2022-10-01T22:13:20.152Z,11.50
2022-10-01T22:15:52.002Z,11.50
2022-10-01T22:18:30.871Z,11.50
2022-10-01T22:21:01.681Z,11.50
2022-10-01T22:23:33.024Z,11.60
2022-10-01T22:26:07.064Z,11.50
2022-10-01T22:28:38.898Z,11.60
2022-10-01T22:31:10.241Z,11.70
2022-10-01T22:33:44.529Z,11.60
2022-10-01T22:36:16.744Z,11.70
2022-10-01T22:38:51.518Z,11.70
2022-10-01T22:41:27.318Z,11.70
2022-10-01T22:43:55.406Z,11.70
2022-10-01T22:46:45.567Z,11.70
2022-10-01T22:49:26.363Z,11.70
2022-10-01T22:52:05.035Z,11.70
2022-10-01T22:54:45.269Z,11.70
2022-10-01T22:57:36.239Z,11.50
2022-10-01T23:00:08.501Z,11.70
2022-10-01T23:02:41.000Z,11.70
2022-10-01T23:05:26.579Z,11.80
2022-10-01T23:08:02.321Z,11.90
2022-10-01T23:10:38.206Z,11.80
2022-10-01T23:13:16.819Z,11.90
2022-10-01T23:15:51.769Z,12.00
2022-10-01T23:18:29.703Z,11.80
2022-10-01T23:21:14.154Z,11.80
2022-10-01T23:23:44.551Z,11.80
2022-10-01T23:26:28.124Z,11.90
2022-10-01T23:29:09.355Z,11.80
2022-10-01T23:31:44.720Z,11.80
2022-10-01T23:34:25.982Z,11.80
2022-10-01T23:37:05.272Z,11.80
2022-10-01T23:39:53.256Z,12.00
2022-10-01T23:42:32.364Z,12.00
2022-10-01T23:45:17.177Z,11.90
2022-10-01T23:47:51.749Z,11.70
2022-10-01T23:50:33.993Z,11.80
2022-10-01T23:53:12.416Z,11.80
2022-10-01T23:56:05.129Z,11.70
2022-10-01T23:58:46.043Z,11.80
